sensor_id;sensor_type;location;lat;lon;timestamp;P1;durP1;ratioP1;P2;durP2;ratioP2
10410;SDS011;5251;52.112;8.606;2022-12-07T00:03:48;9.30;;;8.30;;
10410;SDS011;5251;52.112;8.606;2022-12-07T00:06:16;11.43;;;9.15;;
10410;SDS011;5251;52.112;8.606;2022-12-07T00:08:43;12.55;;;8.80;;
10410;SDS011;5251;52.112;8.606;2022-12-07T00:11:13;13.10;;;10.18;;
10410;SDS011;5251;52.112;8.606;2022-12-07T00:13:43;13.00;;;10.23;;
10410;SDS011;5251;52.112;8.606;2022-12-07T00:16:10;13.90;;;10.20;;
10410;SDS011;5251;52.112;8.606;2022-12-07T00:18:41;13.43;;;10.52;;
10410;SDS011;5251;52.112;8.606;2022-12-07T00:23:41;14.13;;;11.32;;
10410;SDS011;5251;52.112;8.606;2022-12-07T00:28:36;15.13;;;12.27;;
10410;SDS011;5251;52.112;8.606;2022-12-07T00:31:09;14.88;;;12.13;;
10410;SDS011;5251;52.112;8.606;2022-12-07T00:33:37;14.57;;;11.60;;
10410;SDS011;5251;52.112;8.606;2022-12-07T00:36:10;14.13;;;10.93;;
10410;SDS011;5251;52.112;8.606;2022-12-07T00:38:38;16.30;;;11.95;;
10410;SDS011;5251;52.112;8.606;2022-12-07T00:41:09;13.93;;;11.85;;
10410;SDS011;5251;52.112;8.606;2022-12-07T00:43:37;15.02;;;11.80;;
10410;SDS011;5251;52.112;8.606;2022-12-07T00:46:03;13.68;;;11.82;;
10410;SDS011;5251;52.112;8.606;2022-12-07T00:48:29;15.00;;;11.15;;
10410;SDS011;5251;52.112;8.606;2022-12-07T00:50:55;14.00;;;11.82;;
10410;SDS011;5251;52.112;8.606;2022-12-07T00:53:21;14.25;;;12.20;;
10410;SDS011;5251;52.112;8.606;2022-12-07T00:55:47;15.38;;;12.07;;
10410;SDS011;5251;52.112;8.606;2022-12-07T00:58:13;13.00;;;11.40;;
10410;SDS011;5251;52.112;8.606;2022-12-07T01:00:39;14.68;;;11.70;;
10410;SDS011;5251;52.112;8.606;2022-12-07T01:03:07;13.07;;;11.13;;
10410;SDS011;5251;52.112;8.606;2022-12-07T01:05:34;14.32;;;11.13;;
10410;SDS011;5251;52.112;8.606;2022-12-07T01:08:00;13.88;;;11.43;;
10410;SDS011;5251;52.112;8.606;2022-12-07T01:10:26;13.95;;;10.90;;
10410;SDS011;5251;52.112;8.606;2022-12-07T01:12:52;13.10;;;10.18;;
10410;SDS011;5251;52.112;8.606;2022-12-07T01:15:18;13.98;;;10.50;;
10410;SDS011;5251;52.112;8.606;2022-12-07T01:17:43;11.93;;;9.75;;
10410;SDS011;5251;52.112;8.606;2022-12-07T01:20:09;12.13;;;9.85;;
10410;SDS011;5251;52.112;8.606;2022-12-07T01:22:36;11.23;;;9.07;;
10410;SDS011;5251;52.112;8.606;2022-12-07T01:25:03;11.27;;;9.05;;
10410;SDS011;5251;52.112;8.606;2022-12-07T01:27:29;11.02;;;9.25;;
10410;SDS011;5251;52.112;8.606;2022-12-07T01:29:55;10.25;;;8.40;;
10410;SDS011;5251;52.112;8.606;2022-12-07T01:32:20;11.98;;;9.63;;
10410;SDS011;5251;52.112;8.606;2022-12-07T01:34:47;10.55;;;8.90;;
10410;SDS011;5251;52.112;8.606;2022-12-07T01:37:13;11.57;;;9.32;;
10410;SDS011;5251;52.112;8.606;2022-12-07T01:39:39;11.55;;;9.43;;
10410;SDS011;5251;52.112;8.606;2022-12-07T01:42:08;12.23;;;8.95;;
10410;SDS011;5251;52.112;8.606;2022-12-07T01:47:40;10.65;;;8.60;;
10410;SDS011;5251;52.112;8.606;2022-12-07T01:50:08;10.43;;;9.00;;
10410;SDS011;5251;52.112;8.606;2022-12-07T01:52:34;12.18;;;8.90;;
10410;SDS011;5251;52.112;8.606;2022-12-07T01:55:02;11.07;;;8.48;;
10410;SDS011;5251;52.112;8.606;2022-12-07T01:57:31;9.95;;;8.23;;
10410;SDS011;5251;52.112;8.606;2022-12-07T01:59:59;9.63;;;8.00;;
10410;SDS011;5251;52.112;8.606;2022-12-07T02:02:26;9.35;;;7.57;;
10410;SDS011;5251;52.112;8.606;2022-12-07T02:04:58;10.18;;;8.25;;
10410;SDS011;5251;52.112;8.606;2022-12-07T02:07:26;10.27;;;8.43;;
10410;SDS011;5251;52.112;8.606;2022-12-07T02:09:52;12.38;;;8.23;;
10410;SDS011;5251;52.112;8.606;2022-12-07T02:12:18;9.70;;;7.75;;
10410;SDS011;5251;52.112;8.606;2022-12-07T02:14:45;10.48;;;7.85;;
10410;SDS011;5251;52.112;8.606;2022-12-07T02:22:30;8.90;;;7.45;;
10410;SDS011;5251;52.112;8.606;2022-12-07T02:27:37;8.57;;;7.05;;
10410;SDS011;5251;52.112;8.606;2022-12-07T02:30:21;8.68;;;7.38;;
10410;SDS011;5251;52.112;8.606;2022-12-07T02:35:40;8.90;;;7.00;;
10410;SDS011;5251;52.112;8.606;2022-12-07T02:38:16;9.77;;;6.38;;
10410;SDS011;5251;52.112;8.606;2022-12-07T02:40:52;7.55;;;6.47;;
10410;SDS011;5251;52.112;8.606;2022-12-07T02:43:23;8.40;;;6.90;;
10410;SDS011;5251;52.112;8.606;2022-12-07T02:45:53;10.05;;;6.28;;
10410;SDS011;5251;52.112;8.606;2022-12-07T02:48:21;7.45;;;6.13;;
10410;SDS011;5251;52.112;8.606;2022-12-07T02:50:51;9.40;;;6.35;;
10410;SDS011;5251;52.112;8.606;2022-12-07T03:04:32;8.40;;;6.38;;
10410;SDS011;5251;52.112;8.606;2022-12-07T03:06:54;8.27;;;6.10;;
10410;SDS011;5251;52.112;8.606;2022-12-07T03:09:35;10.23;;;6.60;;
10410;SDS011;5251;52.112;8.606;2022-12-07T03:12:12;8.88;;;6.18;;
10410;SDS011;5251;52.112;8.606;2022-12-07T03:14:48;9.73;;;5.93;;
10410;SDS011;5251;52.112;8.606;2022-12-07T03:17:25;6.80;;;5.45;;
10410;SDS011;5251;52.112;8.606;2022-12-07T03:20:00;6.82;;;5.50;;
10410;SDS011;5251;52.112;8.606;2022-12-07T03:22:30;8.48;;;5.50;;
10410;SDS011;5251;52.112;8.606;2022-12-07T03:25:00;8.10;;;5.35;;
10410;SDS011;5251;52.112;8.606;2022-12-07T03:27:31;8.05;;;5.18;;
10410;SDS011;5251;52.112;8.606;2022-12-07T03:30:10;6.35;;;4.85;;
10410;SDS011;5251;52.112;8.606;2022-12-07T03:32:43;8.13;;;5.32;;
10410;SDS011;5251;52.112;8.606;2022-12-07T03:35:17;8.68;;;5.00;;
10410;SDS011;5251;52.112;8.606;2022-12-07T03:38:00;7.82;;;4.93;;
10410;SDS011;5251;52.112;8.606;2022-12-07T03:40:39;8.43;;;5.57;;
10410;SDS011;5251;52.112;8.606;2022-12-07T03:43:09;6.10;;;4.50;;
10410;SDS011;5251;52.112;8.606;2022-12-07T03:45:40;5.75;;;4.32;;
10410;SDS011;5251;52.112;8.606;2022-12-07T03:48:26;5.25;;;4.20;;
10410;SDS011;5251;52.112;8.606;2022-12-07T03:51:13;13.02;;;4.38;;
10410;SDS011;5251;52.112;8.606;2022-12-07T03:53:47;5.82;;;4.40;;
10410;SDS011;5251;52.112;8.606;2022-12-07T03:56:25;5.45;;;4.45;;
10410;SDS011;5251;52.112;8.606;2022-12-07T03:58:52;10.13;;;4.38;;
10410;SDS011;5251;52.112;8.606;2022-12-07T04:01:18;6.18;;;4.30;;
10410;SDS011;5251;52.112;8.606;2022-12-07T04:03:44;8.00;;;5.00;;
10410;SDS011;5251;52.112;8.606;2022-12-07T04:06:10;8.98;;;4.45;;
10410;SDS011;5251;52.112;8.606;2022-12-07T04:08:36;5.50;;;4.45;;
10410;SDS011;5251;52.112;8.606;2022-12-07T04:11:01;7.15;;;4.60;;
10410;SDS011;5251;52.112;8.606;2022-12-07T04:13:27;6.05;;;4.22;;
10410;SDS011;5251;52.112;8.606;2022-12-07T04:15:52;6.93;;;4.68;;
10410;SDS011;5251;52.112;8.606;2022-12-07T04:18:18;6.93;;;4.72;;
10410;SDS011;5251;52.112;8.606;2022-12-07T04:20:45;5.38;;;4.68;;
10410;SDS011;5251;52.112;8.606;2022-12-07T04:23:11;7.10;;;4.45;;
10410;SDS011;5251;52.112;8.606;2022-12-07T04:25:36;6.47;;;4.70;;
10410;SDS011;5251;52.112;8.606;2022-12-07T04:28:02;7.80;;;4.72;;
10410;SDS011;5251;52.112;8.606;2022-12-07T04:30:28;6.43;;;4.00;;
10410;SDS011;5251;52.112;8.606;2022-12-07T04:32:53;7.07;;;4.03;;
10410;SDS011;5251;52.112;8.606;2022-12-07T04:35:19;5.38;;;4.05;;
10410;SDS011;5251;52.112;8.606;2022-12-07T04:37:44;6.15;;;4.05;;
10410;SDS011;5251;52.112;8.606;2022-12-07T04:40:10;7.38;;;4.00;;
10410;SDS011;5251;52.112;8.606;2022-12-07T04:42:37;7.28;;;4.13;;
10410;SDS011;5251;52.112;8.606;2022-12-07T04:45:03;5.93;;;3.63;;
10410;SDS011;5251;52.112;8.606;2022-12-07T04:47:29;6.00;;;3.85;;
10410;SDS011;5251;52.112;8.606;2022-12-07T04:49:54;4.60;;;3.55;;
10410;SDS011;5251;52.112;8.606;2022-12-07T04:52:20;4.78;;;3.70;;
10410;SDS011;5251;52.112;8.606;2022-12-07T04:54:46;5.72;;;4.32;;
10410;SDS011;5251;52.112;8.606;2022-12-07T04:57:11;4.88;;;3.88;;
10410;SDS011;5251;52.112;8.606;2022-12-07T04:59:37;7.15;;;3.65;;
10410;SDS011;5251;52.112;8.606;2022-12-07T05:02:02;6.70;;;3.95;;
10410;SDS011;5251;52.112;8.606;2022-12-07T05:04:28;6.20;;;3.80;;
10410;SDS011;5251;52.112;8.606;2022-12-07T05:06:53;5.40;;;3.70;;
10410;SDS011;5251;52.112;8.606;2022-12-07T05:09:19;5.03;;;3.83;;
10410;SDS011;5251;52.112;8.606;2022-12-07T05:11:44;7.18;;;3.72;;
10410;SDS011;5251;52.112;8.606;2022-12-07T05:14:19;5.60;;;3.97;;
10410;SDS011;5251;52.112;8.606;2022-12-07T05:16:47;7.45;;;4.03;;
10410;SDS011;5251;52.112;8.606;2022-12-07T05:19:14;4.53;;;3.47;;
10410;SDS011;5251;52.112;8.606;2022-12-07T05:21:40;6.10;;;3.65;;
10410;SDS011;5251;52.112;8.606;2022-12-07T05:24:06;6.97;;;3.97;;
10410;SDS011;5251;52.112;8.606;2022-12-07T05:26:34;5.82;;;3.60;;
10410;SDS011;5251;52.112;8.606;2022-12-07T05:29:00;4.38;;;3.55;;
10410;SDS011;5251;52.112;8.606;2022-12-07T05:31:26;7.90;;;3.85;;
10410;SDS011;5251;52.112;8.606;2022-12-07T05:33:52;5.70;;;3.50;;
10410;SDS011;5251;52.112;8.606;2022-12-07T05:36:18;7.45;;;3.83;;
10410;SDS011;5251;52.112;8.606;2022-12-07T05:38:44;5.90;;;3.92;;
10410;SDS011;5251;52.112;8.606;2022-12-07T05:41:11;5.63;;;3.67;;
10410;SDS011;5251;52.112;8.606;2022-12-07T05:43:59;4.57;;;3.50;;
10410;SDS011;5251;52.112;8.606;2022-12-07T05:46:25;8.30;;;4.18;;
10410;SDS011;5251;52.112;8.606;2022-12-07T05:48:51;7.63;;;3.60;;
10410;SDS011;5251;52.112;8.606;2022-12-07T05:51:16;5.10;;;3.50;;
10410;SDS011;5251;52.112;8.606;2022-12-07T05:53:43;6.78;;;3.78;;
10410;SDS011;5251;52.112;8.606;2022-12-07T05:56:09;5.68;;;3.58;;
10410;SDS011;5251;52.112;8.606;2022-12-07T05:58:34;3.70;;;3.20;;
10410;SDS011;5251;52.112;8.606;2022-12-07T06:01:19;5.82;;;3.13;;
10410;SDS011;5251;52.112;8.606;2022-12-07T06:03:44;7.68;;;3.22;;
10410;SDS011;5251;52.112;8.606;2022-12-07T06:06:10;5.10;;;2.90;;
10410;SDS011;5251;52.112;8.606;2022-12-07T06:08:36;6.65;;;3.40;;
10410;SDS011;5251;52.112;8.606;2022-12-07T06:11:01;5.57;;;2.88;;
10410;SDS011;5251;52.112;8.606;2022-12-07T06:13:46;3.78;;;2.40;;
10410;SDS011;5251;52.112;8.606;2022-12-07T06:16:11;3.67;;;2.50;;
10410;SDS011;5251;52.112;8.606;2022-12-07T06:18:37;5.65;;;2.72;;
10410;SDS011;5251;52.112;8.606;2022-12-07T06:21:03;4.72;;;2.72;;
10410;SDS011;5251;52.112;8.606;2022-12-07T06:23:28;3.72;;;2.30;;
10410;SDS011;5251;52.112;8.606;2022-12-07T06:25:54;5.18;;;2.60;;
10410;SDS011;5251;52.112;8.606;2022-12-07T06:28:19;5.03;;;2.72;;
10410;SDS011;5251;52.112;8.606;2022-12-07T06:30:45;5.32;;;3.08;;
10410;SDS011;5251;52.112;8.606;2022-12-07T06:33:10;5.65;;;2.67;;
10410;SDS011;5251;52.112;8.606;2022-12-07T06:35:36;4.68;;;2.75;;
10410;SDS011;5251;52.112;8.606;2022-12-07T06:38:01;4.68;;;2.50;;
10410;SDS011;5251;52.112;8.606;2022-12-07T06:40:27;4.43;;;3.03;;
10410;SDS011;5251;52.112;8.606;2022-12-07T06:42:53;5.22;;;3.00;;
10410;SDS011;5251;52.112;8.606;2022-12-07T06:45:18;5.45;;;3.20;;
10410;SDS011;5251;52.112;8.606;2022-12-07T06:47:44;5.88;;;2.90;;
10410;SDS011;5251;52.112;8.606;2022-12-07T06:50:09;7.20;;;3.30;;
10410;SDS011;5251;52.112;8.606;2022-12-07T06:52:35;5.05;;;3.00;;
10410;SDS011;5251;52.112;8.606;2022-12-07T06:55:00;6.38;;;3.35;;
10410;SDS011;5251;52.112;8.606;2022-12-07T06:57:26;6.55;;;3.33;;
10410;SDS011;5251;52.112;8.606;2022-12-07T06:59:51;5.32;;;3.08;;
10410;SDS011;5251;52.112;8.606;2022-12-07T07:02:17;7.90;;;3.45;;
10410;SDS011;5251;52.112;8.606;2022-12-07T07:04:43;6.22;;;3.13;;
10410;SDS011;5251;52.112;8.606;2022-12-07T07:07:08;6.82;;;3.55;;
10410;SDS011;5251;52.112;8.606;2022-12-07T07:09:34;6.22;;;3.47;;
10410;SDS011;5251;52.112;8.606;2022-12-07T07:11:59;5.82;;;3.72;;
10410;SDS011;5251;52.112;8.606;2022-12-07T07:14:25;5.47;;;3.03;;
10410;SDS011;5251;52.112;8.606;2022-12-07T07:16:51;6.72;;;3.47;;
10410;SDS011;5251;52.112;8.606;2022-12-07T07:19:17;4.10;;;2.90;;
10410;SDS011;5251;52.112;8.606;2022-12-07T07:21:43;5.00;;;3.13;;
10410;SDS011;5251;52.112;8.606;2022-12-07T07:24:09;4.68;;;3.10;;
10410;SDS011;5251;52.112;8.606;2022-12-07T07:26:34;6.05;;;3.67;;
10410;SDS011;5251;52.112;8.606;2022-12-07T07:29:00;6.07;;;3.40;;
10410;SDS011;5251;52.112;8.606;2022-12-07T07:31:25;5.47;;;3.30;;
10410;SDS011;5251;52.112;8.606;2022-12-07T07:33:51;5.82;;;3.40;;
10410;SDS011;5251;52.112;8.606;2022-12-07T07:36:16;4.95;;;2.97;;
10410;SDS011;5251;52.112;8.606;2022-12-07T07:38:42;5.78;;;3.10;;
10410;SDS011;5251;52.112;8.606;2022-12-07T07:41:08;5.20;;;3.10;;
10410;SDS011;5251;52.112;8.606;2022-12-07T07:43:33;4.95;;;3.08;;
10410;SDS011;5251;52.112;8.606;2022-12-07T07:45:59;5.82;;;2.95;;
10410;SDS011;5251;52.112;8.606;2022-12-07T07:48:24;4.95;;;2.92;;
10410;SDS011;5251;52.112;8.606;2022-12-07T07:50:50;5.55;;;3.10;;
10410;SDS011;5251;52.112;8.606;2022-12-07T07:53:16;6.00;;;3.20;;
10410;SDS011;5251;52.112;8.606;2022-12-07T07:55:41;5.40;;;3.20;;
10410;SDS011;5251;52.112;8.606;2022-12-07T07:58:15;6.30;;;3.15;;
10410;SDS011;5251;52.112;8.606;2022-12-07T08:00:40;5.68;;;3.05;;
10410;SDS011;5251;52.112;8.606;2022-12-07T08:03:06;3.45;;;3.00;;
10410;SDS011;5251;52.112;8.606;2022-12-07T08:05:31;6.47;;;3.38;;
10410;SDS011;5251;52.112;8.606;2022-12-07T08:07:57;6.40;;;3.53;;
10410;SDS011;5251;52.112;8.606;2022-12-07T08:10:22;5.07;;;3.60;;
10410;SDS011;5251;52.112;8.606;2022-12-07T08:12:48;4.82;;;3.28;;
10410;SDS011;5251;52.112;8.606;2022-12-07T08:15:32;5.00;;;3.05;;
10410;SDS011;5251;52.112;8.606;2022-12-07T08:17:58;4.88;;;2.97;;
10410;SDS011;5251;52.112;8.606;2022-12-07T08:20:24;5.10;;;2.78;;
10410;SDS011;5251;52.112;8.606;2022-12-07T08:22:50;5.45;;;2.78;;
10410;SDS011;5251;52.112;8.606;2022-12-07T08:25:16;4.45;;;2.60;;
10410;SDS011;5251;52.112;8.606;2022-12-07T08:27:42;5.03;;;3.47;;
10410;SDS011;5251;52.112;8.606;2022-12-07T08:30:08;5.07;;;2.65;;
10410;SDS011;5251;52.112;8.606;2022-12-07T08:32:33;4.47;;;2.58;;
10410;SDS011;5251;52.112;8.606;2022-12-07T08:34:59;5.55;;;2.55;;
10410;SDS011;5251;52.112;8.606;2022-12-07T08:37:24;5.93;;;2.53;;
10410;SDS011;5251;52.112;8.606;2022-12-07T08:39:50;5.75;;;2.63;;
10410;SDS011;5251;52.112;8.606;2022-12-07T08:42:16;5.68;;;2.80;;
10410;SDS011;5251;52.112;8.606;2022-12-07T08:44:41;3.47;;;2.75;;
10410;SDS011;5251;52.112;8.606;2022-12-07T08:47:07;6.50;;;2.78;;
10410;SDS011;5251;52.112;8.606;2022-12-07T08:49:38;4.57;;;2.60;;
10410;SDS011;5251;52.112;8.606;2022-12-07T08:52:06;5.80;;;2.83;;
10410;SDS011;5251;52.112;8.606;2022-12-07T08:54:33;5.43;;;2.70;;
10410;SDS011;5251;52.112;8.606;2022-12-07T08:57:00;8.95;;;2.83;;
10410;SDS011;5251;52.112;8.606;2022-12-07T08:59:26;4.75;;;2.45;;
10410;SDS011;5251;52.112;8.606;2022-12-07T09:01:52;7.45;;;2.67;;
10410;SDS011;5251;52.112;8.606;2022-12-07T09:04:18;7.05;;;2.95;;
10410;SDS011;5251;52.112;8.606;2022-12-07T09:06:43;6.45;;;2.50;;
10410;SDS011;5251;52.112;8.606;2022-12-07T09:09:09;5.85;;;2.80;;
10410;SDS011;5251;52.112;8.606;2022-12-07T09:11:36;5.72;;;2.60;;
10410;SDS011;5251;52.112;8.606;2022-12-07T09:14:02;6.05;;;3.00;;
10410;SDS011;5251;52.112;8.606;2022-12-07T09:16:28;6.05;;;2.72;;
10410;SDS011;5251;52.112;8.606;2022-12-07T09:18:53;5.38;;;2.65;;
10410;SDS011;5251;52.112;8.606;2022-12-07T09:21:19;6.55;;;2.55;;
10410;SDS011;5251;52.112;8.606;2022-12-07T09:23:44;6.20;;;2.53;;
10410;SDS011;5251;52.112;8.606;2022-12-07T09:26:10;6.22;;;2.50;;
10410;SDS011;5251;52.112;8.606;2022-12-07T09:28:36;4.70;;;2.85;;
10410;SDS011;5251;52.112;8.606;2022-12-07T09:31:02;4.10;;;2.45;;
10410;SDS011;5251;52.112;8.606;2022-12-07T09:33:28;4.82;;;2.45;;
10410;SDS011;5251;52.112;8.606;2022-12-07T09:35:54;3.97;;;2.50;;
10410;SDS011;5251;52.112;8.606;2022-12-07T09:38:20;7.82;;;2.70;;
10410;SDS011;5251;52.112;8.606;2022-12-07T09:40:45;6.68;;;2.85;;
10410;SDS011;5251;52.112;8.606;2022-12-07T09:43:17;2.80;;;1.98;;
10410;SDS011;5251;52.112;8.606;2022-12-07T09:45:45;3.67;;;2.20;;
10410;SDS011;5251;52.112;8.606;2022-12-07T09:51:22;5.45;;;2.30;;
10410;SDS011;5251;52.112;8.606;2022-12-07T09:53:48;3.53;;;1.95;;
10410;SDS011;5251;52.112;8.606;2022-12-07T09:56:15;4.82;;;1.88;;
10410;SDS011;5251;52.112;8.606;2022-12-07T09:58:43;4.88;;;2.20;;
10410;SDS011;5251;52.112;8.606;2022-12-07T10:01:11;6.05;;;2.25;;
10410;SDS011;5251;52.112;8.606;2022-12-07T10:03:47;6.47;;;2.70;;
10410;SDS011;5251;52.112;8.606;2022-12-07T10:06:16;4.97;;;2.20;;
10410;SDS011;5251;52.112;8.606;2022-12-07T10:08:42;5.63;;;2.50;;
10410;SDS011;5251;52.112;8.606;2022-12-07T10:11:08;5.00;;;2.42;;
10410;SDS011;5251;52.112;8.606;2022-12-07T10:18:53;4.68;;;2.65;;
10410;SDS011;5251;52.112;8.606;2022-12-07T10:21:23;4.57;;;2.20;;
10410;SDS011;5251;52.112;8.606;2022-12-07T10:24:14;4.97;;;2.60;;
10410;SDS011;5251;52.112;8.606;2022-12-07T10:31:42;5.68;;;2.33;;
10410;SDS011;5251;52.112;8.606;2022-12-07T10:34:29;5.32;;;2.30;;
10410;SDS011;5251;52.112;8.606;2022-12-07T10:37:07;3.38;;;2.20;;
10410;SDS011;5251;52.112;8.606;2022-12-07T10:39:45;5.75;;;2.47;;
10410;SDS011;5251;52.112;8.606;2022-12-07T10:42:27;3.65;;;2.00;;
10410;SDS011;5251;52.112;8.606;2022-12-07T10:52:58;4.03;;;1.80;;
10410;SDS011;5251;52.112;8.606;2022-12-07T10:59:17;2.97;;;1.70;;
10410;SDS011;5251;52.112;8.606;2022-12-07T11:01:57;5.90;;;2.30;;
10410;SDS011;5251;52.112;8.606;2022-12-07T11:07:14;4.13;;;1.77;;
10410;SDS011;5251;52.112;8.606;2022-12-07T11:12:45;4.07;;;2.10;;
10410;SDS011;5251;52.112;8.606;2022-12-07T11:18:23;4.00;;;1.90;;
10410;SDS011;5251;52.112;8.606;2022-12-07T11:20:59;5.68;;;2.13;;
10410;SDS011;5251;52.112;8.606;2022-12-07T11:37:44;5.13;;;2.00;;
10410;SDS011;5251;52.112;8.606;2022-12-07T11:40:30;5.78;;;1.58;;
10410;SDS011;5251;52.112;8.606;2022-12-07T11:45:34;4.43;;;1.80;;
10410;SDS011;5251;52.112;8.606;2022-12-07T11:48:09;2.92;;;1.70;;
10410;SDS011;5251;52.112;8.606;2022-12-07T11:50:47;3.65;;;1.85;;
10410;SDS011;5251;52.112;8.606;2022-12-07T11:56:09;2.92;;;1.70;;
10410;SDS011;5251;52.112;8.606;2022-12-07T12:04:28;4.15;;;1.52;;
10410;SDS011;5251;52.112;8.606;2022-12-07T12:07:21;4.65;;;2.15;;
10410;SDS011;5251;52.112;8.606;2022-12-07T12:10:02;2.88;;;1.77;;
10410;SDS011;5251;52.112;8.606;2022-12-07T12:18:58;3.33;;;1.50;;
10410;SDS011;5251;52.112;8.606;2022-12-07T12:21:44;5.60;;;1.85;;
10410;SDS011;5251;52.112;8.606;2022-12-07T12:24:17;3.35;;;1.55;;
10410;SDS011;5251;52.112;8.606;2022-12-07T12:26:51;4.43;;;1.70;;
10410;SDS011;5251;52.112;8.606;2022-12-07T12:29:33;4.38;;;1.50;;
10410;SDS011;5251;52.112;8.606;2022-12-07T12:32:42;7.30;;;1.92;;
10410;SDS011;5251;52.112;8.606;2022-12-07T12:45:19;6.70;;;1.50;;
10410;SDS011;5251;52.112;8.606;2022-12-07T12:47:54;3.53;;;1.40;;
10410;SDS011;5251;52.112;8.606;2022-12-07T12:50:34;3.80;;;1.65;;
10410;SDS011;5251;52.112;8.606;2022-12-07T12:53:14;2.60;;;1.33;;
10410;SDS011;5251;52.112;8.606;2022-12-07T12:55:49;3.80;;;1.52;;
10410;SDS011;5251;52.112;8.606;2022-12-07T12:58:35;3.05;;;1.50;;
10410;SDS011;5251;52.112;8.606;2022-12-07T13:07:13;2.88;;;1.50;;
10410;SDS011;5251;52.112;8.606;2022-12-07T13:09:59;6.40;;;1.80;;
10410;SDS011;5251;52.112;8.606;2022-12-07T13:12:26;4.75;;;1.88;;
10410;SDS011;5251;52.112;8.606;2022-12-07T13:14:53;5.55;;;1.70;;
10410;SDS011;5251;52.112;8.606;2022-12-07T13:27:39;3.08;;;1.52;;
10410;SDS011;5251;52.112;8.606;2022-12-07T13:30:17;3.83;;;1.90;;
10410;SDS011;5251;52.112;8.606;2022-12-07T13:32:54;5.53;;;1.70;;
10410;SDS011;5251;52.112;8.606;2022-12-07T13:37:59;5.63;;;1.80;;
10410;SDS011;5251;52.112;8.606;2022-12-07T13:40:27;4.05;;;1.83;;
10410;SDS011;5251;52.112;8.606;2022-12-07T13:43:02;6.75;;;1.73;;
10410;SDS011;5251;52.112;8.606;2022-12-07T13:45:31;2.53;;;1.60;;
10410;SDS011;5251;52.112;8.606;2022-12-07T13:48:24;3.33;;;1.45;;
10410;SDS011;5251;52.112;8.606;2022-12-07T13:50:59;3.42;;;1.63;;
10410;SDS011;5251;52.112;8.606;2022-12-07T13:53:26;5.18;;;1.45;;
10410;SDS011;5251;52.112;8.606;2022-12-07T13:55:56;2.42;;;1.20;;
10410;SDS011;5251;52.112;8.606;2022-12-07T13:58:23;5.53;;;1.90;;
10410;SDS011;5251;52.112;8.606;2022-12-07T14:00:50;4.03;;;1.50;;
10410;SDS011;5251;52.112;8.606;2022-12-07T14:05:42;4.93;;;1.90;;
10410;SDS011;5251;52.112;8.606;2022-12-07T14:10:37;4.68;;;1.67;;
10410;SDS011;5251;52.112;8.606;2022-12-07T14:13:22;2.95;;;1.55;;
10410;SDS011;5251;52.112;8.606;2022-12-07T14:15:58;6.13;;;2.10;;
10410;SDS011;5251;52.112;8.606;2022-12-07T14:18:38;4.88;;;1.58;;
10410;SDS011;5251;52.112;8.606;2022-12-07T14:21:17;4.03;;;1.85;;
10410;SDS011;5251;52.112;8.606;2022-12-07T14:23:44;3.90;;;1.88;;
10410;SDS011;5251;52.112;8.606;2022-12-07T14:26:26;3.53;;;1.58;;
10410;SDS011;5251;52.112;8.606;2022-12-07T14:28:52;3.05;;;1.70;;
10410;SDS011;5251;52.112;8.606;2022-12-07T14:31:18;5.22;;;1.92;;
10410;SDS011;5251;52.112;8.606;2022-12-07T14:33:48;2.40;;;1.30;;
10410;SDS011;5251;52.112;8.606;2022-12-07T14:36:14;3.63;;;1.67;;
10410;SDS011;5251;52.112;8.606;2022-12-07T14:38:40;3.28;;;1.85;;
10410;SDS011;5251;52.112;8.606;2022-12-07T14:41:06;4.07;;;1.80;;
10410;SDS011;5251;52.112;8.606;2022-12-07T14:43:56;4.22;;;1.73;;
10410;SDS011;5251;52.112;8.606;2022-12-07T14:46:22;4.10;;;1.80;;
10410;SDS011;5251;52.112;8.606;2022-12-07T14:48:47;3.97;;;1.77;;
10410;SDS011;5251;52.112;8.606;2022-12-07T14:51:14;3.53;;;1.50;;
10410;SDS011;5251;52.112;8.606;2022-12-07T14:53:44;7.57;;;1.63;;
10410;SDS011;5251;52.112;8.606;2022-12-07T14:56:13;4.78;;;2.05;;
10410;SDS011;5251;52.112;8.606;2022-12-07T14:58:39;3.30;;;1.40;;
10410;SDS011;5251;52.112;8.606;2022-12-07T15:01:05;4.43;;;1.80;;
10410;SDS011;5251;52.112;8.606;2022-12-07T15:03:31;5.65;;;1.60;;
10410;SDS011;5251;52.112;8.606;2022-12-07T15:05:56;2.85;;;1.55;;
10410;SDS011;5251;52.112;8.606;2022-12-07T15:08:22;3.38;;;1.40;;
10410;SDS011;5251;52.112;8.606;2022-12-07T15:10:48;10.00;;;1.90;;
10410;SDS011;5251;52.112;8.606;2022-12-07T15:13:13;6.03;;;1.63;;
10410;SDS011;5251;52.112;8.606;2022-12-07T15:15:58;4.40;;;2.15;;
10410;SDS011;5251;52.112;8.606;2022-12-07T15:18:24;5.35;;;1.52;;
10410;SDS011;5251;52.112;8.606;2022-12-07T15:20:50;6.50;;;1.55;;
10410;SDS011;5251;52.112;8.606;2022-12-07T15:23:16;7.07;;;1.83;;
10410;SDS011;5251;52.112;8.606;2022-12-07T15:25:42;4.82;;;1.65;;
10410;SDS011;5251;52.112;8.606;2022-12-07T15:28:09;3.38;;;1.50;;
10410;SDS011;5251;52.112;8.606;2022-12-07T15:30:36;5.40;;;1.63;;
10410;SDS011;5251;52.112;8.606;2022-12-07T15:33:02;5.18;;;1.80;;
10410;SDS011;5251;52.112;8.606;2022-12-07T15:35:28;3.70;;;1.65;;
10410;SDS011;5251;52.112;8.606;2022-12-07T15:37:53;5.10;;;1.73;;
10410;SDS011;5251;52.112;8.606;2022-12-07T15:40:19;5.65;;;1.73;;
10410;SDS011;5251;52.112;8.606;2022-12-07T15:42:45;5.97;;;2.05;;
10410;SDS011;5251;52.112;8.606;2022-12-07T15:45:10;6.03;;;1.98;;
10410;SDS011;5251;52.112;8.606;2022-12-07T15:47:39;5.22;;;2.15;;
10410;SDS011;5251;52.112;8.606;2022-12-07T15:50:07;5.07;;;2.15;;
10410;SDS011;5251;52.112;8.606;2022-12-07T15:52:35;8.07;;;2.90;;
10410;SDS011;5251;52.112;8.606;2022-12-07T15:55:00;6.78;;;2.10;;
10410;SDS011;5251;52.112;8.606;2022-12-07T15:57:28;4.53;;;1.75;;
10410;SDS011;5251;52.112;8.606;2022-12-07T15:59:57;3.55;;;1.58;;
10410;SDS011;5251;52.112;8.606;2022-12-07T16:02:23;1.63;;;1.00;;
10410;SDS011;5251;52.112;8.606;2022-12-07T16:04:49;1.35;;;0.80;;
10410;SDS011;5251;52.112;8.606;2022-12-07T16:07:16;1.52;;;0.60;;
10410;SDS011;5251;52.112;8.606;2022-12-07T16:09:42;0.98;;;0.57;;
10410;SDS011;5251;52.112;8.606;2022-12-07T16:12:09;0.75;;;0.50;;
10410;SDS011;5251;52.112;8.606;2022-12-07T16:14:35;1.17;;;0.50;;
10410;SDS011;5251;52.112;8.606;2022-12-07T16:17:02;1.77;;;0.70;;
10410;SDS011;5251;52.112;8.606;2022-12-07T16:19:29;1.33;;;0.70;;
10410;SDS011;5251;52.112;8.606;2022-12-07T16:21:55;1.83;;;0.82;;
10410;SDS011;5251;52.112;8.606;2022-12-07T16:24:21;1.30;;;0.80;;
10410;SDS011;5251;52.112;8.606;2022-12-07T16:26:47;1.77;;;0.90;;
10410;SDS011;5251;52.112;8.606;2022-12-07T16:29:14;1.13;;;0.90;;
10410;SDS011;5251;52.112;8.606;2022-12-07T16:31:40;2.70;;;0.90;;
10410;SDS011;5251;52.112;8.606;2022-12-07T16:34:05;1.55;;;1.00;;
10410;SDS011;5251;52.112;8.606;2022-12-07T16:36:31;2.55;;;1.20;;
10410;SDS011;5251;52.112;8.606;2022-12-07T16:39:00;2.47;;;1.40;;
10410;SDS011;5251;52.112;8.606;2022-12-07T16:41:26;2.22;;;1.30;;
10410;SDS011;5251;52.112;8.606;2022-12-07T16:43:52;2.30;;;1.05;;
10410;SDS011;5251;52.112;8.606;2022-12-07T16:46:18;2.78;;;1.63;;
10410;SDS011;5251;52.112;8.606;2022-12-07T16:48:43;3.65;;;1.20;;
10410;SDS011;5251;52.112;8.606;2022-12-07T16:51:10;2.25;;;1.23;;
10410;SDS011;5251;52.112;8.606;2022-12-07T16:53:37;2.75;;;1.45;;
10410;SDS011;5251;52.112;8.606;2022-12-07T16:56:08;2.85;;;1.33;;
10410;SDS011;5251;52.112;8.606;2022-12-07T16:58:39;2.25;;;1.30;;
10410;SDS011;5251;52.112;8.606;2022-12-07T17:01:08;3.50;;;1.45;;
10410;SDS011;5251;52.112;8.606;2022-12-07T17:03:38;3.60;;;2.00;;
10410;SDS011;5251;52.112;8.606;2022-12-07T17:06:09;5.60;;;1.80;;
10410;SDS011;5251;52.112;8.606;2022-12-07T17:08:40;4.05;;;2.08;;
10410;SDS011;5251;52.112;8.606;2022-12-07T17:11:10;3.47;;;1.92;;
10410;SDS011;5251;52.112;8.606;2022-12-07T17:13:40;4.20;;;1.90;;
10410;SDS011;5251;52.112;8.606;2022-12-07T17:16:25;4.22;;;2.00;;
10410;SDS011;5251;52.112;8.606;2022-12-07T17:18:51;5.10;;;2.40;;
10410;SDS011;5251;52.112;8.606;2022-12-07T17:21:16;5.65;;;2.30;;